sensor_id;sensor_type;location;lat;lon;timestamp;pressure;altitude;pressure_sealevel;temperature
37452;BMP280;23314;51.114;6.900;2023-04-02T00:01:15;100412.75;;;10.25
37452;BMP280;23314;51.114;6.900;2023-04-02T00:09:00;100433.03;;;10.19
37452;BMP280;23314;51.114;6.900;2023-04-02T00:11:37;100443.41;;;10.13
37452;BMP280;23314;51.114;6.900;2023-04-02T00:14:05;100451.03;;;10.11
37452;BMP280;23314;51.114;6.900;2023-04-02T00:16:37;100456.84;;;10.06
37452;BMP280;23314;51.114;6.900;2023-04-02T00:19:06;100461.47;;;10.02
37452;BMP280;23314;51.114;6.900;2023-04-02T00:21:37;100468.78;;;9.98
37452;BMP280;23314;51.114;6.900;2023-04-02T00:24:12;100471.81;;;9.96
37452;BMP280;23314;51.114;6.900;2023-04-02T00:26:42;100468.06;;;9.93
37452;BMP280;23314;51.114;6.900;2023-04-02T00:29:11;100478.31;;;9.95
37452;BMP280;23314;51.114;6.900;2023-04-02T00:31:40;100488.56;;;9.97
37452;BMP280;23314;51.114;6.900;2023-04-02T00:34:07;100485.56;;;9.94
37452;BMP280;23314;51.114;6.900;2023-04-02T00:36:34;100485.56;;;9.94
37452;BMP280;23314;51.114;6.900;2023-04-02T00:39:02;100489.03;;;9.91
37452;BMP280;23314;51.114;6.900;2023-04-02T00:41:30;100498.56;;;9.89
37452;BMP280;23314;51.114;6.900;2023-04-02T00:44:00;100496.31;;;9.87
37452;BMP280;23314;51.114;6.900;2023-04-02T00:46:30;100507.75;;;9.84
37452;BMP280;23314;51.114;6.900;2023-04-02T00:49:06;100505.91;;;9.81
37452;BMP280;23314;51.114;6.900;2023-04-02T00:51:48;100510.88;;;9.79
37452;BMP280;23314;51.114;6.900;2023-04-02T00:54:18;100517.34;;;9.78
37452;BMP280;23314;51.114;6.900;2023-04-02T00:56:48;100526.56;;;9.73
37452;BMP280;23314;51.114;6.900;2023-04-02T00:59:30;100523.56;;;9.68
37452;BMP280;23314;51.114;6.900;2023-04-02T01:04:42;100535.47;;;9.59
37452;BMP280;23314;51.114;6.900;2023-04-02T01:07:16;100539.66;;;9.57
37452;BMP280;23314;51.114;6.900;2023-04-02T01:09:53;100544.28;;;9.53
37452;BMP280;23314;51.114;6.900;2023-04-02T01:12:28;100548.09;;;9.52
37452;BMP280;23314;51.114;6.900;2023-04-02T01:17:52;100562.56;;;9.51
37452;BMP280;23314;51.114;6.900;2023-04-02T01:26:03;100576.34;;;9.42
37452;BMP280;23314;51.114;6.900;2023-04-02T01:28:49;100579.78;;;9.39
37452;BMP280;23314;51.114;6.900;2023-04-02T01:31:21;100571.88;;;9.35
37452;BMP280;23314;51.114;6.900;2023-04-02T01:33:46;100581.75;;;9.35
37452;BMP280;23314;51.114;6.900;2023-04-02T01:36:53;100588.22;;;9.34
37452;BMP280;23314;51.114;6.900;2023-04-02T01:44:48;100598.59;;;9.21
37452;BMP280;23314;51.114;6.900;2023-04-02T01:47:16;100610.38;;;9.20
37452;BMP280;23314;51.114;6.900;2023-04-02T01:49:43;100609.28;;;9.17
37452;BMP280;23314;51.114;6.900;2023-04-02T01:52:15;100603.22;;;9.13
37452;BMP280;23314;51.114;6.900;2023-04-02T01:54:41;100628.72;;;9.10
37452;BMP280;23314;51.114;6.900;2023-04-02T01:57:07;100635.59;;;9.08
37452;BMP280;23314;51.114;6.900;2023-04-02T01:59:32;100637.13;;;9.05
37452;BMP280;23314;51.114;6.900;2023-04-02T02:02:02;100629.16;;;9.05
37452;BMP280;23314;51.114;6.900;2023-04-02T02:04:29;100636.38;;;9.05
37452;BMP280;23314;51.114;6.900;2023-04-02T02:06:56;100638.66;;;9.03
37452;BMP280;23314;51.114;6.900;2023-04-02T02:09:28;100651.22;;;9.02
37452;BMP280;23314;51.114;6.900;2023-04-02T02:11:56;100648.19;;;9.00
37452;BMP280;23314;51.114;6.900;2023-04-02T02:14:24;100660.38;;;8.97
37452;BMP280;23314;51.114;6.900;2023-04-02T02:16:52;100657.31;;;8.99
37452;BMP280;23314;51.114;6.900;2023-04-02T02:19:31;100666.81;;;9.00
37452;BMP280;23314;51.114;6.900;2023-04-02T02:22:17;100674.78;;;9.00
37452;BMP280;23314;51.114;6.900;2023-04-02T02:24:44;100672.53;;;8.98
37452;BMP280;23314;51.114;6.900;2023-04-02T02:29:57;100680.94;;;8.90
37452;BMP280;23314;51.114;6.900;2023-04-02T02:32:28;100680.59;;;8.88
37452;BMP280;23314;51.114;6.900;2023-04-02T02:35:00;100692.00;;;8.85
37452;BMP280;23314;51.114;6.900;2023-04-02T02:37:30;100700.34;;;8.87
37452;BMP280;23314;51.114;6.900;2023-04-02T02:39:59;100706.44;;;8.87
37452;BMP280;23314;51.114;6.900;2023-04-02T02:42:35;100709.84;;;8.88
37452;BMP280;23314;51.114;6.900;2023-04-02T02:45:05;100709.09;;;8.87
37452;BMP280;23314;51.114;6.900;2023-04-02T02:47:36;100718.97;;;8.87
37452;BMP280;23314;51.114;6.900;2023-04-02T02:50:05;100725.44;;;8.86
37452;BMP280;23314;51.114;6.900;2023-04-02T02:52:35;100733.81;;;8.80
37452;BMP280;23314;51.114;6.900;2023-04-02T02:55:05;100738.00;;;8.78
37452;BMP280;23314;51.114;6.900;2023-04-02T02:57:37;100739.56;;;8.72
37452;BMP280;23314;51.114;6.900;2023-04-02T03:00:05;100752.47;;;8.66
37452;BMP280;23314;51.114;6.900;2023-04-02T03:02:35;100743.00;;;8.58
37452;BMP280;23314;51.114;6.900;2023-04-02T03:05:01;100758.97;;;8.54
37452;BMP280;23314;51.114;6.900;2023-04-02T03:07:27;100759.38;;;8.49
37452;BMP280;23314;51.114;6.900;2023-04-02T03:12:50;100765.13;;;8.33
37452;BMP280;23314;51.114;6.900;2023-04-02T03:15:42;100779.16;;;8.30
37452;BMP280;23314;51.114;6.900;2023-04-02T03:21:20;100786.41;;;8.15
37452;BMP280;23314;51.114;6.900;2023-04-02T03:23:51;100795.16;;;8.12
37452;BMP280;23314;51.114;6.900;2023-04-02T03:26:30;100798.94;;;8.11
37452;BMP280;23314;51.114;6.900;2023-04-02T03:29:25;100809.94;;;8.06
37452;BMP280;23314;51.114;6.900;2023-04-02T03:34:26;100814.50;;;8.05
37452;BMP280;23314;51.114;6.900;2023-04-02T03:36:59;100823.63;;;8.00
37452;BMP280;23314;51.114;6.900;2023-04-02T03:39:37;100825.13;;;7.98
37452;BMP280;23314;51.114;6.900;2023-04-02T03:42:23;100830.03;;;7.96
37452;BMP280;23314;51.114;6.900;2023-04-02T03:44:59;100841.06;;;7.98
37452;BMP280;23314;51.114;6.900;2023-04-02T03:47:34;100832.72;;;7.99
37452;BMP280;23314;51.114;6.900;2023-04-02T03:52:42;100863.09;;;7.98
37452;BMP280;23314;51.114;6.900;2023-04-02T03:55:29;100866.09;;;7.97
37452;BMP280;23314;51.114;6.900;2023-04-02T04:03:25;100881.66;;;7.95
37452;BMP280;23314;51.114;6.900;2023-04-02T04:05:59;100883.16;;;7.96
37452;BMP280;23314;51.114;6.900;2023-04-02T04:08:35;100899.13;;;7.99
37452;BMP280;23314;51.114;6.900;2023-04-02T04:11:12;100902.19;;;8.01
37452;BMP280;23314;51.114;6.900;2023-04-02T04:16:19;100911.63;;;7.95
37452;BMP280;23314;51.114;6.900;2023-04-02T04:18:55;100913.94;;;7.90
37452;BMP280;23314;51.114;6.900;2023-04-02T04:21:27;100918.06;;;7.87
37452;BMP280;23314;51.114;6.900;2023-04-02T04:24:10;100915.44;;;7.80
37452;BMP280;23314;51.114;6.900;2023-04-02T04:27:03;100927.53;;;7.77
37452;BMP280;23314;51.114;6.900;2023-04-02T04:32:27;100937.75;;;7.71
37452;BMP280;23314;51.114;6.900;2023-04-02T04:35:29;100947.25;;;7.69
37452;BMP280;23314;51.114;6.900;2023-04-02T04:37:57;100949.16;;;7.68
37452;BMP280;23314;51.114;6.900;2023-04-02T04:40:29;100965.84;;;7.72
37452;BMP280;23314;51.114;6.900;2023-04-02T04:43:00;100968.50;;;7.76
37452;BMP280;23314;51.114;6.900;2023-04-02T04:45:38;100973.41;;;7.74
37452;BMP280;23314;51.114;6.900;2023-04-02T04:50:58;100985.59;;;7.82
37452;BMP280;23314;51.114;6.900;2023-04-02T04:53:26;100997.34;;;7.85
37452;BMP280;23314;51.114;6.900;2023-04-02T04:55:56;101001.16;;;7.84
37452;BMP280;23314;51.114;6.900;2023-04-02T04:58:47;101020.13;;;7.79
37452;BMP280;23314;51.114;6.900;2023-04-02T05:04:03;101028.03;;;7.71
37452;BMP280;23314;51.114;6.900;2023-04-02T05:08:59;101028.81;;;7.68
37452;BMP280;23314;51.114;6.900;2023-04-02T05:11:31;101037.16;;;7.67
37452;BMP280;23314;51.114;6.900;2023-04-02T05:14:01;101043.94;;;7.64
37452;BMP280;23314;51.114;6.900;2023-04-02T05:16:50;101049.59;;;7.59
37452;BMP280;23314;51.114;6.900;2023-04-02T05:22:04;101054.09;;;7.48
37452;BMP280;23314;51.114;6.900;2023-04-02T05:24:54;101063.94;;;7.44
37452;BMP280;23314;51.114;6.900;2023-04-02T05:28:00;101066.56;;;7.40
37452;BMP280;23314;51.114;6.900;2023-04-02T05:33:02;101077.91;;;7.33
37452;BMP280;23314;51.114;6.900;2023-04-02T05:35:34;101082.81;;;7.31
37452;BMP280;23314;51.114;6.900;2023-04-02T05:38:00;101091.91;;;7.30
37452;BMP280;23314;51.114;6.900;2023-04-02T05:40:31;101091.44;;;7.24
37452;BMP280;23314;51.114;6.900;2023-04-02T05:42:59;101098.25;;;7.22
37452;BMP280;23314;51.114;6.900;2023-04-02T05:45:33;101104.31;;;7.19
37452;BMP280;23314;51.114;6.900;2023-04-02T05:48:15;101111.47;;;7.15
37452;BMP280;23314;51.114;6.900;2023-04-02T05:50:44;101120.50;;;7.10
37452;BMP280;23314;51.114;6.900;2023-04-02T05:53:20;101129.22;;;7.07
37452;BMP280;23314;51.114;6.900;2023-04-02T05:58:46;101143.59;;;7.06
37452;BMP280;23314;51.114;6.900;2023-04-02T06:01:27;101140.97;;;7.06
37452;BMP280;23314;51.114;6.900;2023-04-02T06:06:49;101166.25;;;7.00
37452;BMP280;23314;51.114;6.900;2023-04-02T06:09:41;101175.75;;;7.01
37452;BMP280;23314;51.114;6.900;2023-04-02T06:15:15;101188.59;;;6.99
37452;BMP280;23314;51.114;6.900;2023-04-02T06:17:55;101196.94;;;6.97
37452;BMP280;23314;51.114;6.900;2023-04-02T06:20:24;101220.78;;;6.93
37452;BMP280;23314;51.114;6.900;2023-04-02T06:22:58;101202.16;;;6.90
37452;BMP280;23314;51.114;6.900;2023-04-02T06:25:26;101206.31;;;6.87
37452;BMP280;23314;51.114;6.900;2023-04-02T06:27:54;101222.22;;;6.87
37452;BMP280;23314;51.114;6.900;2023-04-02T06:30:40;101227.09;;;6.82
37452;BMP280;23314;51.114;6.900;2023-04-02T06:33:10;101236.19;;;6.81
37452;BMP280;23314;51.114;6.900;2023-04-02T06:35:42;101233.41;;;6.73
37452;BMP280;23314;51.114;6.900;2023-04-02T06:38:16;101244.03;;;6.73
37452;BMP280;23314;51.114;6.900;2023-04-02T06:40:47;101243.31;;;6.76
37452;BMP280;23314;51.114;6.900;2023-04-02T06:43:25;101249.03;;;6.79
37452;BMP280;23314;51.114;6.900;2023-04-02T06:45:59;101251.31;;;6.80
37452;BMP280;23314;51.114;6.900;2023-04-02T06:48:26;101267.31;;;6.87
37452;BMP280;23314;51.114;6.900;2023-04-02T06:51:06;101266.59;;;6.90
37452;BMP280;23314;51.114;6.900;2023-04-02T06:53:36;101268.53;;;6.93
37452;BMP280;23314;51.114;6.900;2023-04-02T06:56:28;101280.25;;;6.92
37452;BMP280;23314;51.114;6.900;2023-04-02T06:59:00;101284.44;;;6.93
37452;BMP280;23314;51.114;6.900;2023-04-02T07:01:31;101297.31;;;6.91
37452;BMP280;23314;51.114;6.900;2023-04-02T07:03:58;101303.03;;;6.97
37452;BMP280;23314;51.114;6.900;2023-04-02T07:06:23;101303.84;;;7.01
37452;BMP280;23314;51.114;6.900;2023-04-02T07:08:49;101322.06;;;7.03
37452;BMP280;23314;51.114;6.900;2023-04-02T07:11:20;101311.03;;;7.01
37452;BMP280;23314;51.114;6.900;2023-04-02T07:13:49;101323.53;;;7.00
37452;BMP280;23314;51.114;6.900;2023-04-02T07:16:19;101328.19;;;7.07
37452;BMP280;23314;51.114;6.900;2023-04-02T07:18:46;101333.16;;;7.08
37452;BMP280;23314;51.114;6.900;2023-04-02T07:21:11;101339.91;;;7.06
37452;BMP280;23314;51.114;6.900;2023-04-02T07:23:37;101352.06;;;7.11
37452;BMP280;23314;51.114;6.900;2023-04-02T07:26:04;101354.31;;;7.05
37452;BMP280;23314;51.114;6.900;2023-04-02T07:28:29;101360.72;;;7.04
37452;BMP280;23314;51.114;6.900;2023-04-02T07:30:55;101362.25;;;7.05
37452;BMP280;23314;51.114;6.900;2023-04-02T07:33:23;101345.22;;;7.06
37452;BMP280;23314;51.114;6.900;2023-04-02T07:35:50;101364.56;;;7.06
37452;BMP280;23314;51.114;6.900;2023-04-02T07:38:16;101366.44;;;7.06
37452;BMP280;23314;51.114;6.900;2023-04-02T07:40:41;101369.91;;;7.10
37452;BMP280;23314;51.114;6.900;2023-04-02T07:43:07;101376.03;;;7.14
37452;BMP280;23314;51.114;6.900;2023-04-02T07:45:32;101389.00;;;7.23
37452;BMP280;23314;51.114;6.900;2023-04-02T07:48:06;101392.50;;;7.27
37452;BMP280;23314;51.114;6.900;2023-04-02T07:50:32;101388.41;;;7.33
37452;BMP280;23314;51.114;6.900;2023-04-02T07:52:57;101404.38;;;7.37
37452;BMP280;23314;51.114;6.900;2023-04-02T07:55:22;101399.38;;;7.35
37452;BMP280;23314;51.114;6.900;2023-04-02T07:57:53;101400.16;;;7.36
37452;BMP280;23314;51.114;6.900;2023-04-02T08:00:19;101421.72;;;7.31
37452;BMP280;23314;51.114;6.900;2023-04-02T08:02:45;101428.13;;;7.26
37452;BMP280;23314;51.114;6.900;2023-04-02T08:05:11;101429.22;;;7.25
37452;BMP280;23314;51.114;6.900;2023-04-02T08:07:37;101437.94;;;7.25
37452;BMP280;23314;51.114;6.900;2023-04-02T08:10:08;101436.41;;;7.21
37452;BMP280;23314;51.114;6.900;2023-04-02T08:12:34;101437.88;;;7.18
37452;BMP280;23314;51.114;6.900;2023-04-02T08:14:59;101442.34;;;7.14
37452;BMP280;23314;51.114;6.900;2023-04-02T08:17:25;101443.47;;;7.13
37452;BMP280;23314;51.114;6.900;2023-04-02T08:19:58;101456.88;;;7.20
37452;BMP280;23314;51.114;6.900;2023-04-02T08:22:29;101468.34;;;7.28
37452;BMP280;23314;51.114;6.900;2023-04-02T08:24:55;101476.44;;;7.39
37452;BMP280;23314;51.114;6.900;2023-04-02T08:27:24;101478.25;;;7.35
37452;BMP280;23314;51.114;6.900;2023-04-02T08:29:50;101469.09;;;7.29
37452;BMP280;23314;51.114;6.900;2023-04-02T08:32:16;101486.53;;;7.30
37452;BMP280;23314;51.114;6.900;2023-04-02T08:34:42;101489.34;;;7.40
37452;BMP280;23314;51.114;6.900;2023-04-02T08:37:10;101502.34;;;7.49
37452;BMP280;23314;51.114;6.900;2023-04-02T08:39:38;101512.63;;;7.51
37452;BMP280;23314;51.114;6.900;2023-04-02T08:42:16;101504.28;;;7.52
37452;BMP280;23314;51.114;6.900;2023-04-02T08:45:04;101518.34;;;7.53
37452;BMP280;23314;51.114;6.900;2023-04-02T08:47:34;101546.16;;;7.63
37452;BMP280;23314;51.114;6.900;2023-04-02T08:50:27;101524.84;;;7.55
37452;BMP280;23314;51.114;6.900;2023-04-02T08:52:53;101535.44;;;7.55
37452;BMP280;23314;51.114;6.900;2023-04-02T08:55:37;101537.00;;;7.56
37452;BMP280;23314;51.114;6.900;2023-04-02T09:00:54;101545.25;;;7.82
37452;BMP280;23314;51.114;6.900;2023-04-02T09:03:39;101556.00;;;7.89
37452;BMP280;23314;51.114;6.900;2023-04-02T09:06:07;101553.91;;;8.06
37452;BMP280;23314;51.114;6.900;2023-04-02T09:08:36;101569.19;;;8.16
37452;BMP280;23314;51.114;6.900;2023-04-02T09:11:24;101567.06;;;8.29
37452;BMP280;23314;51.114;6.900;2023-04-02T09:13:58;101569.81;;;8.36
37452;BMP280;23314;51.114;6.900;2023-04-02T09:16:43;101585.00;;;8.35
37452;BMP280;23314;51.114;6.900;2023-04-02T09:19:18;101578.19;;;8.38
37452;BMP280;23314;51.114;6.900;2023-04-02T09:21:51;101581.66;;;8.42
37452;BMP280;23314;51.114;6.900;2023-04-02T09:24:21;101576.06;;;8.51
37452;BMP280;23314;51.114;6.900;2023-04-02T09:26:46;101586.72;;;8.55
37452;BMP280;23314;51.114;6.900;2023-04-02T09:31:48;101594.78;;;8.62
37452;BMP280;23314;51.114;6.900;2023-04-02T09:34:32;101607.59;;;8.52
37452;BMP280;23314;51.114;6.900;2023-04-02T09:37:15;101611.31;;;8.44
37452;BMP280;23314;51.114;6.900;2023-04-02T09:39:41;101627.34;;;8.51
37452;BMP280;23314;51.114;6.900;2023-04-02T09:42:33;101633.91;;;8.61
37452;BMP280;23314;51.114;6.900;2023-04-02T09:45:20;101639.59;;;8.60
37452;BMP280;23314;51.114;6.900;2023-04-02T09:47:46;101643.38;;;8.59
37452;BMP280;23314;51.114;6.900;2023-04-02T09:50:23;101658.28;;;8.67
37452;BMP280;23314;51.114;6.900;2023-04-02T09:52:49;101651.44;;;8.66
37452;BMP280;23314;51.114;6.900;2023-04-02T09:55:24;101658.44;;;8.81
37452;BMP280;23314;51.114;6.900;2023-04-02T09:58:06;101663.38;;;8.83
37452;BMP280;23314;51.114;6.900;2023-04-02T10:00:31;101670.31;;;8.88
37452;BMP280;23314;51.114;6.900;2023-04-02T10:03:09;101670.63;;;8.82
37452;BMP280;23314;51.114;6.900;2023-04-02T10:05:42;101677.69;;;8.71
37452;BMP280;23314;51.114;6.900;2023-04-02T10:08:20;101683.31;;;8.62
37452;BMP280;23314;51.114;6.900;2023-04-02T10:10:52;101688.28;;;8.64
37452;BMP280;23314;51.114;6.900;2023-04-02T10:13:29;101696.72;;;8.73
37452;BMP280;23314;51.114;6.900;2023-04-02T10:16:02;101699.50;;;8.84
37452;BMP280;23314;51.114;6.900;2023-04-02T10:18:38;101705.03;;;9.02
37452;BMP280;23314;51.114;6.900;2023-04-02T10:21:07;101709.72;;;9.16
37452;BMP280;23314;51.114;6.900;2023-04-02T10:23:32;101717.78;;;9.23
37452;BMP280;23314;51.114;6.900;2023-04-02T10:26:18;101715.97;;;9.35
37452;BMP280;23314;51.114;6.900;2023-04-02T10:31:39;101727.44;;;9.42
37452;BMP280;23314;51.114;6.900;2023-04-02T10:34:20;101732.03;;;9.45
37452;BMP280;23314;51.114;6.900;2023-04-02T10:36:55;101740.41;;;9.44
37452;BMP280;23314;51.114;6.900;2023-04-02T10:39:35;101739.59;;;9.40
37452;BMP280;23314;51.114;6.900;2023-04-02T10:53:02;101756.03;;;9.49
37452;BMP280;23314;51.114;6.900;2023-04-02T10:55:33;101755.66;;;9.51
37452;BMP280;23314;51.114;6.900;2023-04-02T10:58:07;101769.81;;;9.58
37452;BMP280;23314;51.114;6.900;2023-04-02T11:00:40;101782.72;;;9.56
37452;BMP280;23314;51.114;6.900;2023-04-02T11:03:22;101781.59;;;9.54
37452;BMP280;23314;51.114;6.900;2023-04-02T11:05:54;101780.78;;;9.50
37452;BMP280;23314;51.114;6.900;2023-04-02T11:08:37;101786.84;;;9.50
37452;BMP280;23314;51.114;6.900;2023-04-02T11:11:11;101799.81;;;9.52
37452;BMP280;23314;51.114;6.900;2023-04-02T11:14:02;101799.09;;;9.55
37452;BMP280;23314;51.114;6.900;2023-04-02T11:16:29;101807.50;;;9.60
37452;BMP280;23314;51.114;6.900;2023-04-02T11:21:41;101807.28;;;9.80
37452;BMP280;23314;51.114;6.900;2023-04-02T11:24:34;101810.13;;;10.02
37452;BMP280;23314;51.114;6.900;2023-04-02T11:29:48;101810.16;;;10.05
37452;BMP280;23314;51.114;6.900;2023-04-02T11:37:36;101818.41;;;10.49
37452;BMP280;23314;51.114;6.900;2023-04-02T11:42:49;101822.72;;;10.68
37452;BMP280;23314;51.114;6.900;2023-04-02T11:53:03;101845.22;;;10.74
37452;BMP280;23314;51.114;6.900;2023-04-02T11:55:32;101840.25;;;10.69
37452;BMP280;23314;51.114;6.900;2023-04-02T12:00:54;101857.81;;;10.77
37452;BMP280;23314;51.114;6.900;2023-04-02T12:06:26;101857.91;;;10.99
37452;BMP280;23314;51.114;6.900;2023-04-02T12:11:43;101861.75;;;11.12
37452;BMP280;23314;51.114;6.900;2023-04-02T12:14:40;101885.78;;;11.12
37452;BMP280;23314;51.114;6.900;2023-04-02T12:17:27;101871.28;;;11.02
37452;BMP280;23314;51.114;6.900;2023-04-02T12:19:56;101865.16;;;11.02
37452;BMP280;23314;51.114;6.900;2023-04-02T12:22:24;101875.06;;;10.94
37452;BMP280;23314;51.114;6.900;2023-04-02T12:24:53;101879.19;;;10.88
37452;BMP280;23314;51.114;6.900;2023-04-02T12:27:23;101873.84;;;10.77
37452;BMP280;23314;51.114;6.900;2023-04-02T12:29:53;101876.53;;;10.84
37452;BMP280;23314;51.114;6.900;2023-04-02T12:32:27;101880.84;;;11.14
37452;BMP280;23314;51.114;6.900;2023-04-02T12:34:54;101880.50;;;11.23
37452;BMP280;23314;51.114;6.900;2023-04-02T12:37:27;101885.47;;;11.17
37452;BMP280;23314;51.114;6.900;2023-04-02T12:39:59;101887.00;;;11.25
37452;BMP280;23314;51.114;6.900;2023-04-02T12:42:31;101892.75;;;11.38
37452;BMP280;23314;51.114;6.900;2023-04-02T12:44:57;101899.63;;;11.47
37452;BMP280;23314;51.114;6.900;2023-04-02T12:47:23;101906.84;;;11.32
37452;BMP280;23314;51.114;6.900;2023-04-02T12:49:49;101895.81;;;11.40
37452;BMP280;23314;51.114;6.900;2023-04-02T12:52:17;101909.53;;;11.46
37452;BMP280;23314;51.114;6.900;2023-04-02T12:59:58;101936.59;;;11.23
37452;BMP280;23314;51.114;6.900;2023-04-02T13:02:37;101925.44;;;10.99
37452;BMP280;23314;51.114;6.900;2023-04-02T13:05:07;101918.19;;;11.00
37452;BMP280;23314;51.114;6.900;2023-04-02T13:07:33;101920.44;;;10.98
37452;BMP280;23314;51.114;6.900;2023-04-02T13:10:24;101920.50;;;11.08
37452;BMP280;23314;51.114;6.900;2023-04-02T13:12:58;101926.66;;;11.20
37452;BMP280;23314;51.114;6.900;2023-04-02T13:15:30;101931.66;;;11.25
37452;BMP280;23314;51.114;6.900;2023-04-02T13:20:38;101936.13;;;11.03
37452;BMP280;23314;51.114;6.900;2023-04-02T13:23:36;101941.16;;;11.15
37452;BMP280;23314;51.114;6.900;2023-04-02T13:26:20;101935.84;;;11.33
37452;BMP280;23314;51.114;6.900;2023-04-02T13:31:33;101945.00;;;11.25
37452;BMP280;23314;51.114;6.900;2023-04-02T13:33:58;101950.34;;;11.32
37452;BMP280;23314;51.114;6.900;2023-04-02T13:36:24;101956.50;;;11.40
37452;BMP280;23314;51.114;6.900;2023-04-02T13:38:49;101965.25;;;11.33
37452;BMP280;23314;51.114;6.900;2023-04-02T13:41:23;101970.53;;;11.15
37452;BMP280;23314;51.114;6.900;2023-04-02T13:43:51;101966.28;;;11.07
37452;BMP280;23314;51.114;6.900;2023-04-02T13:46:20;101972.31;;;10.97
37452;BMP280;23314;51.114;6.900;2023-04-02T13:48:48;101981.06;;;10.90
37452;BMP280;23314;51.114;6.900;2023-04-02T13:51:18;101977.63;;;10.86
37452;BMP280;23314;51.114;6.900;2023-04-02T13:53:53;101975.28;;;10.81
37452;BMP280;23314;51.114;6.900;2023-04-02T13:56:19;101964.56;;;10.73
37452;BMP280;23314;51.114;6.900;2023-04-02T13:58:47;101981.34;;;10.74
37452;BMP280;23314;51.114;6.900;2023-04-02T14:01:12;101983.28;;;10.77
37452;BMP280;23314;51.114;6.900;2023-04-02T14:03:38;101984.78;;;10.74
37452;BMP280;23314;51.114;6.900;2023-04-02T14:11:45;102009.47;;;10.60
37452;BMP280;23314;51.114;6.900;2023-04-02T14:17:23;102008.34;;;10.65
37452;BMP280;23314;51.114;6.900;2023-04-02T14:28:46;102033.06;;;10.55
37452;BMP280;23314;51.114;6.900;2023-04-02T14:31:33;102025.75;;;10.48
37452;BMP280;23314;51.114;6.900;2023-04-02T14:39:57;102054.25;;;10.40
37452;BMP280;23314;51.114;6.900;2023-04-02T14:42:29;102056.06;;;10.29
37452;BMP280;23314;51.114;6.900;2023-04-02T14:45:06;102051.41;;;10.22
37452;BMP280;23314;51.114;6.900;2023-04-02T14:47:44;102056.41;;;10.24
37452;BMP280;23314;51.114;6.900;2023-04-02T14:50:23;102049.88;;;10.18
37452;BMP280;23314;51.114;6.900;2023-04-02T14:52:55;102059.41;;;10.19
37452;BMP280;23314;51.114;6.900;2023-04-02T14:55:31;102070.56;;;10.28
37452;BMP280;23314;51.114;6.900;2023-04-02T14:58:00;102059.78;;;10.17
37452;BMP280;23314;51.114;6.900;2023-04-02T15:00:34;102069.97;;;10.11
37452;BMP280;23314;51.114;6.900;2023-04-02T15:03:08;102069.94;;;10.08
37452;BMP280;23314;51.114;6.900;2023-04-02T15:05:42;102073.22;;;9.94
37452;BMP280;23314;51.114;6.900;2023-04-02T15:08:28;102080.34;;;9.86
37452;BMP280;23314;51.114;6.900;2023-04-02T15:11:00;102097.84;;;9.84
37452;BMP280;23314;51.114;6.900;2023-04-02T15:13:38;102092.13;;;9.82
37452;BMP280;23314;51.114;6.900;2023-04-02T15:16:22;102083.06;;;9.90
37452;BMP280;23314;51.114;6.900;2023-04-02T15:18:52;102092.38;;;10.03
37452;BMP280;23314;51.114;6.900;2023-04-02T15:24:10;102080.28;;;10.09
37452;BMP280;23314;51.114;6.900;2023-04-02T15:26:55;102091.00;;;10.17
37452;BMP280;23314;51.114;6.900;2023-04-02T15:31:53;102090.59;;;10.52
37452;BMP280;23314;51.114;6.900;2023-04-02T15:34:26;102091.81;;;10.58
37452;BMP280;23314;51.114;6.900;2023-04-02T15:39:42;102093.44;;;10.70
37452;BMP280;23314;51.114;6.900;2023-04-02T15:42:42;102089.91;;;10.63
37452;BMP280;23314;51.114;6.900;2023-04-02T15:45:28;102102.88;;;10.64
37452;BMP280;23314;51.114;6.900;2023-04-02T15:50:57;102115.00;;;10.51
37452;BMP280;23314;51.114;6.900;2023-04-02T15:53:36;102112.19;;;10.40
37452;BMP280;23314;51.114;6.900;2023-04-02T15:56:21;102104.09;;;10.29
37452;BMP280;23314;51.114;6.900;2023-04-02T16:05:01;102116.41;;;10.41
37452;BMP280;23314;51.114;6.900;2023-04-02T16:07:43;102121.78;;;10.44
37452;BMP280;23314;51.114;6.900;2023-04-02T16:10:30;102122.16;;;10.43
37452;BMP280;23314;51.114;6.900;2023-04-02T16:12:57;102129.09;;;10.51
37452;BMP280;23314;51.114;6.900;2023-04-02T16:15:29;102136.78;;;10.60
37452;BMP280;23314;51.114;6.900;2023-04-02T16:18:10;102134.50;;;10.58
37452;BMP280;23314;51.114;6.900;2023-04-02T16:20:42;102137.88;;;10.52
37452;BMP280;23314;51.114;6.900;2023-04-02T16:25:40;102152.56;;;10.04
37452;BMP280;23314;51.114;6.900;2023-04-02T16:31:19;102143.66;;;9.93
37452;BMP280;23314;51.114;6.900;2023-04-02T16:36:49;102152.34;;;9.86
37452;BMP280;23314;51.114;6.900;2023-04-02T16:45:02;102156.66;;;9.68
37452;BMP280;23314;51.114;6.900;2023-04-02T16:50:18;102178.78;;;9.45
37452;BMP280;23314;51.114;6.900;2023-04-02T16:53:33;102172.25;;;9.42
37452;BMP280;23314;51.114;6.900;2023-04-02T17:01:26;102187.69;;;9.56
37452;BMP280;23314;51.114;6.900;2023-04-02T17:07:08;102202.44;;;9.50
37452;BMP280;23314;51.114;6.900;2023-04-02T17:09:58;102200.94;;;9.29
37452;BMP280;23314;51.114;6.900;2023-04-02T17:12:40;102207.31;;;9.21
37452;BMP280;23314;51.114;6.900;2023-04-02T17:15:32;102205.63;;;9.13
37452;BMP280;23314;51.114;6.900;2023-04-02T17:17:59;102213.19;;;9.11
37452;BMP280;23314;51.114;6.900;2023-04-02T17:20:26;102219.25;;;9.08
37452;BMP280;23314;51.114;6.900;2023-04-02T17:22:51;102223.38;;;9.05
37452;BMP280;23314;51.114;6.900;2023-04-02T17:25:24;102224.94;;;9.06
37452;BMP280;23314;51.114;6.900;2023-04-02T17:27:53;102233.59;;;9.03
37452;BMP280;23314;51.114;6.900;2023-04-02T17:30:48;102235.97;;;9.08
37452;BMP280;23314;51.114;6.900;2023-04-02T17:33:16;102234.50;;;9.11
37452;BMP280;23314;51.114;6.900;2023-04-02T17:36:07;102233.31;;;9.08
37452;BMP280;23314;51.114;6.900;2023-04-02T17:38:46;102243.13;;;9.04
37452;BMP280;23314;51.114;6.900;2023-04-02T17:44:26;102243.47;;;8.83
37452;BMP280;23314;51.114;6.900;2023-04-02T17:47:22;102255.00;;;8.67
37452;BMP280;23314;51.114;6.900;2023-04-02T17:52:44;102263.19;;;8.43
37452;BMP280;23314;51.114;6.900;2023-04-02T17:55:44;102274.03;;;8.34
37452;BMP280;23314;51.114;6.900;2023-04-02T18:01:53;102281.16;;;8.30
37452;BMP280;23314;51.114;6.900;2023-04-02T18:09:46;102298.06;;;8.22
37452;BMP280;23314;51.114;6.900;2023-04-02T18:12:42;102294.88;;;8.16